Time;durP1;ratioP1;P1;durP2;ratioP2;P2;SDS_P1;SDS_P2;PMS_P1;PMS_P2;Temp;Humidity;BMP_temperature;BMP_pressure;BME280_temperature;BME280_humidity;BME280_pressure;Samples;Min_cycle;Max_cycle;Signal;HPM_P1;HPM_P2
2021/12/25 00:01:00;;;;;;;6.23;5.73;;;;;;;;;;5061759;28;20247;-69
2021/12/25 00:03:48;;;;;;;5.90;5.40;;;;;;;;;;5060837;28;20345;-70
2021/12/25 00:06:36;;;;;;;5.87;5.37;;;;;;;;;;5066376;28;21027;-70
2021/12/25 00:09:23;;;;;;;5.60;5.10;;;;;;;;;;5062112;28;20248;-70
2021/12/25 00:12:10;;;;;;;5.70;5.20;;;;;;;;;;5064508;28;20219;-69
2021/12/25 00:14:57;;;;;;;5.60;5.10;;;;;;;;;;5066830;28;20341;-70
2021/12/25 00:17:46;;;;;;;4.73;4.33;;;;;;;;;;5067078;28;20695;-70
2021/12/25 00:20:33;;;;;;;4.90;4.50;;;;;;;;;;5058183;28;20238;-70
2021/12/25 00:23:19;;;;;;;4.43;4.13;;;;;;;;;;5066572;28;20202;-70
2021/12/25 00:26:11;;;;;;;4.87;4.37;;;;;;;;;;5066030;28;20291;-69
2021/12/25 00:29:04;;;;;;;4.53;4.17;;;;;;;;;;5067903;28;20207;-70
2021/12/25 00:31:57;;;;;;;4.23;3.93;;;;;;;;;;5067736;28;20214;-70
2021/12/25 00:34:46;;;;;;;3.83;3.53;;;;;;;;;;5066092;28;20722;-70
2021/12/25 00:37:32;;;;;;;3.97;3.67;;;;;;;;;;5067159;28;20210;-70
2021/12/25 00:40:20;;;;;;;3.70;3.40;;;;;;;;;;5066985;28;20288;-71
2021/12/25 00:43:07;;;;;;;3.70;3.40;;;;;;;;;;5061450;28;20264;-71
2021/12/25 00:45:53;;;;;;;4.33;3.97;;;;;;;;;;5066708;28;20302;-70
2021/12/25 00:48:41;;;;;;;3.93;3.63;;;;;;;;;;5070392;28;20744;-70
2021/12/25 00:51:29;;;;;;;3.80;3.50;;;;;;;;;;5071516;28;20214;-71
2021/12/25 00:54:16;;;;;;;3.50;3.20;;;;;;;;;;5071248;28;20250;-70
2021/12/25 00:57:04;;;;;;;3.40;3.10;;;;;;;;;;5071320;28;20269;-70
2021/12/25 00:59:50;;;;;;;3.33;3.13;;;;;;;;;;5070244;28;20294;-70
2021/12/25 01:02:40;;;;;;;3.27;3.07;;;;;;;;;;5070281;28;20284;-70
2021/12/25 01:05:27;;;;;;;2.90;2.70;;;;;;;;;;5071311;28;20623;-71
2021/12/25 01:08:15;;;;;;;3.47;3.27;;;;;;;;;;5071025;28;20292;-70
2021/12/25 01:11:03;;;;;;;3.83;3.53;;;;;;;;;;5067399;28;20631;-69
2021/12/25 01:13:56;;;;;;;3.40;3.20;;;;;;;;;;5070165;28;20227;-71
2021/12/25 01:17:08;;;;;;;3.60;3.30;;;;;;;;;;5068110;28;20207;-71
2021/12/25 01:26:19;;;;;;;3.30;3.10;;;;;;;;;;5070253;28;20260;-70
2021/12/25 01:29:28;;;;;;;3.17;2.97;;;;;;;;;;5069366;28;20641;-70
2021/12/25 01:36:09;;;;;;;3.30;3.10;;;;;;;;;;5070357;28;20204;-70
2021/12/25 01:39:00;;;;;;;3.33;3.13;;;;;;;;;;5067334;28;20215;-70
2021/12/25 01:42:09;;;;;;;3.50;3.30;;;;;;;;;;5068883;28;20203;-69
2021/12/25 01:48:02;;;;;;;3.80;3.50;;;;;;;;;;5067654;28;20701;-70
2021/12/25 01:50:49;;;;;;;3.50;3.20;;;;;;;;;;5067836;28;20207;-70
2021/12/25 01:53:36;;;;;;;3.60;3.40;;;;;;;;;;5070617;28;20835;-70
2021/12/25 01:56:23;;;;;;;3.10;2.90;;;;;;;;;;5068594;28;20671;-70
2021/12/25 01:59:11;;;;;;;3.20;3.00;;;;;;;;;;5068628;28;20238;-71
2021/12/25 02:01:58;;;;;;;3.80;3.50;;;;;;;;;;5069318;28;20203;-70
2021/12/25 02:04:45;;;;;;;3.10;2.90;;;;;;;;;;5069445;28;20612;-70
2021/12/25 02:07:32;;;;;;;3.20;3.00;;;;;;;;;;5070951;28;20765;-69
2021/12/25 02:10:20;;;;;;;3.07;2.87;;;;;;;;;;5062567;28;20239;-70
2021/12/25 02:13:09;;;;;;;3.20;3.00;;;;;;;;;;5068626;28;20230;-70
2021/12/25 02:15:59;;;;;;;3.03;2.83;;;;;;;;;;5069068;28;20237;-70
2021/12/25 02:19:01;;;;;;;2.67;2.57;;;;;;;;;;5068727;28;20214;-70
2021/12/25 02:21:51;;;;;;;2.90;2.70;;;;;;;;;;5069652;28;20557;-70
2021/12/25 02:24:38;;;;;;;2.90;2.70;;;;;;;;;;5069158;28;20248;-70
2021/12/25 02:27:25;;;;;;;2.50;2.40;;;;;;;;;;5067665;28;20316;-70
2021/12/25 02:30:12;;;;;;;2.90;2.70;;;;;;;;;;5056426;28;20217;-70
2021/12/25 02:32:59;;;;;;;2.93;2.73;;;;;;;;;;5068570;28;20280;-70
2021/12/25 02:35:47;;;;;;;2.77;2.57;;;;;;;;;;5068942;28;20210;-70
2021/12/25 02:38:35;;;;;;;3.00;2.80;;;;;;;;;;5069470;28;20199;-69
2021/12/25 02:41:22;;;;;;;3.00;2.80;;;;;;;;;;5068443;28;20277;-70
2021/12/25 02:44:10;;;;;;;3.07;2.87;;;;;;;;;;5068595;28;20218;-70
2021/12/25 02:46:59;;;;;;;3.50;3.30;;;;;;;;;;5068373;28;20202;-70
2021/12/25 02:49:48;;;;;;;3.20;3.00;;;;;;;;;;5068765;28;20211;-70
2021/12/25 02:52:36;;;;;;;2.93;2.73;;;;;;;;;;5069165;28;20203;-70
2021/12/25 02:55:24;;;;;;;3.10;2.90;;;;;;;;;;5067342;28;20218;-70
2021/12/25 02:58:12;;;;;;;2.97;2.77;;;;;;;;;;5068208;28;20262;-70
2021/12/25 03:01:02;;;;;;;2.67;2.47;;;;;;;;;;5068975;28;20210;-70
2021/12/25 03:03:49;;;;;;;3.07;2.87;;;;;;;;;;5066965;28;20340;-70
2021/12/25 03:06:37;;;;;;;2.77;2.57;;;;;;;;;;5069291;28;20306;-70
2021/12/25 03:09:24;;;;;;;3.00;2.80;;;;;;;;;;5064956;28;20216;-71
2021/12/25 03:12:15;;;;;;;2.70;2.50;;;;;;;;;;5067293;28;20203;-70
2021/12/25 03:15:07;;;;;;;2.53;2.33;;;;;;;;;;5069673;28;20699;-70
2021/12/25 03:17:55;;;;;;;2.60;2.40;;;;;;;;;;5067749;28;20218;-69
2021/12/25 03:20:44;;;;;;;2.20;2.10;;;;;;;;;;5069060;28;20262;-70
2021/12/25 03:23:34;;;;;;;2.47;2.37;;;;;;;;;;5067500;28;20199;-69
2021/12/25 03:26:21;;;;;;;2.90;2.70;;;;;;;;;;5067924;28;20214;-70
2021/12/25 03:29:09;;;;;;;2.30;2.20;;;;;;;;;;5068785;28;20285;-70
2021/12/25 03:31:56;;;;;;;2.57;2.47;;;;;;;;;;5068454;28;20207;-70
2021/12/25 03:34:43;;;;;;;2.20;2.10;;;;;;;;;;5068652;28;20276;-70
2021/12/25 03:37:30;;;;;;;2.20;2.10;;;;;;;;;;5068899;28;20286;-70
2021/12/25 03:40:17;;;;;;;2.23;2.13;;;;;;;;;;5067693;28;20277;-70
2021/12/25 03:43:05;;;;;;;2.10;2.00;;;;;;;;;;5061907;28;20202;-70
2021/12/25 03:45:53;;;;;;;1.90;1.80;;;;;;;;;;5067242;28;20288;-70
2021/12/25 03:58:01;;;;;;;2.20;2.10;;;;;;;;;;5067575;28;20690;-70
2021/12/25 04:00:49;;;;;;;2.10;2.00;;;;;;;;;;5069163;28;20215;-70
2021/12/25 04:03:46;;;;;;;1.90;1.80;;;;;;;;;;5066603;28;20262;-70
2021/12/25 04:06:34;;;;;;;1.93;1.83;;;;;;;;;;5067909;28;20301;-70
2021/12/25 04:09:25;;;;;;;2.00;1.90;;;;;;;;;;5065263;28;20643;-69
2021/12/25 04:12:13;;;;;;;2.10;2.00;;;;;;;;;;5067181;28;20506;-69
2021/12/25 04:15:00;;;;;;;2.03;1.93;;;;;;;;;;5068551;28;20223;-70
2021/12/25 04:17:48;;;;;;;2.00;1.90;;;;;;;;;;5068056;28;20313;-70
2021/12/25 04:20:36;;;;;;;1.97;1.87;;;;;;;;;;5067032;28;20292;-70
2021/12/25 04:23:27;;;;;;;1.50;1.40;;;;;;;;;;5067049;28;20573;-70
2021/12/25 04:26:14;;;;;;;2.00;1.90;;;;;;;;;;5065240;28;20203;-71
2021/12/25 04:29:15;;;;;;;1.97;1.87;;;;;;;;;;5068016;28;20203;-70
2021/12/25 04:32:31;;;;;;;1.80;1.70;;;;;;;;;;5066015;28;20213;-70
2021/12/25 04:48:05;;;;;;;1.90;1.80;;;;;;;;;;5067525;28;20565;-70
2021/12/25 05:03:29;;;;;;;3.03;2.83;;;;;;;;;;5066560;28;20290;-71
2021/12/25 05:06:16;;;;;;;3.33;3.10;;;;;;;;;;5067103;28;20211;-70
2021/12/25 05:09:04;;;;;;;3.33;3.03;;;;;;;;;;5065354;28;20204;-70
2021/12/25 05:11:51;;;;;;;4.67;4.00;;;;;;;;;;5064985;28;20268;-70
2021/12/25 05:14:38;;;;;;;5.47;4.40;;;;;;;;;;5067636;28;20274;-70
2021/12/25 05:17:25;;;;;;;4.23;3.50;;;;;;;;;;5067430;28;20207;-70
2021/12/25 05:20:13;;;;;;;4.23;3.83;;;;;;;;;;5061467;28;20207;-70
2021/12/25 05:23:00;;;;;;;4.20;3.80;;;;;;;;;;5067289;28;20353;-70
2021/12/25 05:25:49;;;;;;;4.20;3.80;;;;;;;;;;5066558;28;20210;-70
2021/12/25 05:28:40;;;;;;;3.20;2.90;;;;;;;;;;5061039;28;20584;-70
2021/12/25 05:31:29;;;;;;;3.60;3.30;;;;;;;;;;5067491;28;20210;-70
2021/12/25 05:34:16;;;;;;;3.63;3.33;;;;;;;;;;5067425;28;20253;-70
2021/12/25 05:37:04;;;;;;;3.67;3.37;;;;;;;;;;5070741;28;20280;-69
2021/12/25 05:39:51;;;;;;;3.20;3.00;;;;;;;;;;5069042;28;20203;-70
2021/12/25 05:42:40;;;;;;;3.37;3.10;;;;;;;;;;5071055;28;20575;-70
2021/12/25 05:45:27;;;;;;;3.50;3.20;;;;;;;;;;5071528;28;20207;-70
2021/12/25 05:48:14;;;;;;;3.13;2.93;;;;;;;;;;5069677;28;20312;-70
2021/12/25 05:51:01;;;;;;;3.10;2.90;;;;;;;;;;5054835;28;20214;-70
2021/12/25 05:53:48;;;;;;;3.03;2.83;;;;;;;;;;5068824;28;20368;-70
2021/12/25 05:56:35;;;;;;;2.70;2.50;;;;;;;;;;5069106;28;20252;-70
2021/12/25 05:59:23;;;;;;;3.13;2.50;;;;;;;;;;5069931;28;20281;-70
2021/12/25 06:02:12;;;;;;;2.80;2.60;;;;;;;;;;5069892;28;20211;-70
2021/12/25 06:05:00;;;;;;;2.73;2.53;;;;;;;;;;5070636;28;20231;-70
2021/12/25 06:07:47;;;;;;;2.50;2.40;;;;;;;;;;5069942;28;20689;-70
2021/12/25 06:10:34;;;;;;;2.63;2.43;;;;;;;;;;5068231;28;20218;-69
2021/12/25 06:13:22;;;;;;;2.57;2.43;;;;;;;;;;5056106;28;20292;-70
2021/12/25 06:16:10;;;;;;;3.00;2.80;;;;;;;;;;5070444;28;20569;-70
2021/12/25 06:18:57;;;;;;;2.80;2.60;;;;;;;;;;5070501;28;20626;-70
2021/12/25 06:21:45;;;;;;;2.97;2.67;;;;;;;;;;5070909;28;20578;-70
2021/12/25 06:24:32;;;;;;;2.73;2.60;;;;;;;;;;5068865;28;20693;-69
2021/12/25 06:27:21;;;;;;;2.73;2.53;;;;;;;;;;5052739;28;20239;-69
2021/12/25 06:30:09;;;;;;;2.70;2.50;;;;;;;;;;5070065;28;20250;-70
2021/12/25 06:32:58;;;;;;;2.30;2.20;;;;;;;;;;5068178;28;20303;-70
2021/12/25 06:35:45;;;;;;;2.80;2.67;;;;;;;;;;5069191;28;20318;-70
2021/12/25 06:38:32;;;;;;;2.37;2.27;;;;;;;;;;5067808;28;20302;-70
2021/12/25 06:41:19;;;;;;;2.30;2.20;;;;;;;;;;5066295;28;20207;-70
2021/12/25 06:44:06;;;;;;;2.77;2.60;;;;;;;;;;5069228;28;20222;-70
2021/12/25 06:46:53;;;;;;;2.37;2.27;;;;;;;;;;5069183;28;20234;-70
2021/12/25 06:49:42;;;;;;;2.20;2.10;;;;;;;;;;5070012;28;20256;-70
2021/12/25 06:52:29;;;;;;;2.73;2.47;;;;;;;;;;5067341;28;20298;-70
2021/12/25 06:55:16;;;;;;;2.67;2.47;;;;;;;;;;5069487;28;20250;-69
2021/12/25 06:58:04;;;;;;;2.40;2.30;;;;;;;;;;5068748;28;20264;-70
2021/12/25 07:00:51;;;;;;;2.20;2.10;;;;;;;;;;5068907;28;20209;-70
2021/12/25 07:03:38;;;;;;;2.30;2.20;;;;;;;;;;5069081;28;20271;-70
2021/12/25 07:06:26;;;;;;;2.60;2.50;;;;;;;;;;5067175;28;20226;-70
2021/12/25 07:09:13;;;;;;;2.30;2.20;;;;;;;;;;5067863;28;20293;-70
2021/12/25 07:12:00;;;;;;;2.27;2.17;;;;;;;;;;5067433;28;20329;-70
2021/12/25 07:14:47;;;;;;;2.13;2.03;;;;;;;;;;5068207;28;20621;-69
2021/12/25 07:17:34;;;;;;;2.10;2.00;;;;;;;;;;5070204;28;20199;-70
2021/12/25 07:20:21;;;;;;;2.23;2.13;;;;;;;;;;5067978;28;20284;-70
2021/12/25 07:23:09;;;;;;;2.47;2.30;;;;;;;;;;5068305;28;20632;-69
2021/12/25 07:25:56;;;;;;;2.27;2.17;;;;;;;;;;5069334;28;20214;-70
2021/12/25 07:28:43;;;;;;;2.50;2.40;;;;;;;;;;5067630;28;20692;-69
2021/12/25 07:31:30;;;;;;;2.50;2.40;;;;;;;;;;5067178;28;20344;-69
2021/12/25 07:34:17;;;;;;;3.20;2.90;;;;;;;;;;5068439;28;20309;-70
2021/12/25 07:37:04;;;;;;;2.83;2.63;;;;;;;;;;5068122;28;20671;-70
2021/12/25 07:39:53;;;;;;;3.50;3.20;;;;;;;;;;5067584;28;20631;-70
2021/12/25 07:42:40;;;;;;;3.73;3.43;;;;;;;;;;5066565;28;20207;-70
2021/12/25 07:45:27;;;;;;;3.50;3.30;;;;;;;;;;5068749;28;20345;-70
2021/12/25 07:48:14;;;;;;;3.93;3.63;;;;;;;;;;5067514;28;20217;-70
2021/12/25 07:51:03;;;;;;;3.90;3.60;;;;;;;;;;5065650;28;20207;-70
2021/12/25 07:53:51;;;;;;;3.90;3.60;;;;;;;;;;5067527;28;20249;-70
2021/12/25 07:56:39;;;;;;;3.80;3.50;;;;;;;;;;5067274;28;20206;-70
2021/12/25 07:59:26;;;;;;;4.50;3.50;;;;;;;;;;5068050;28;20690;-70
2021/12/25 08:02:13;;;;;;;4.33;3.63;;;;;;;;;;5067552;28;20263;-70
2021/12/25 08:05:00;;;;;;;3.93;3.67;;;;;;;;;;5067082;28;20329;-70
2021/12/25 08:07:48;;;;;;;4.37;3.97;;;;;;;;;;5068457;28;20210;-70
2021/12/25 08:10:35;;;;;;;3.93;3.63;;;;;;;;;;5065579;28;20238;-70
2021/12/25 08:13:23;;;;;;;3.80;3.40;;;;;;;;;;5067222;28;20292;-70
2021/12/25 08:16:10;;;;;;;4.00;3.70;;;;;;;;;;5068186;28;20349;-70
2021/12/25 08:18:57;;;;;;;4.07;3.67;;;;;;;;;;5067125;28;20222;-69
2021/12/25 08:21:44;;;;;;;4.13;3.83;;;;;;;;;;5068938;28;20687;-70
2021/12/25 08:24:31;;;;;;;5.60;4.33;;;;;;;;;;5068450;28;20253;-70
2021/12/25 08:27:18;;;;;;;5.13;4.63;;;;;;;;;;5066365;28;20255;-70
2021/12/25 08:30:16;;;;;;;6.93;5.10;;;;;;;;;;5068358;28;20292;-70
2021/12/25 08:33:03;;;;;;;5.30;4.80;;;;;;;;;;5066780;28;20276;-70
2021/12/25 08:35:50;;;;;;;5.33;4.83;;;;;;;;;;5067798;28;20230;-70
2021/12/25 08:38:37;;;;;;;5.87;4.90;;;;;;;;;;5066715;28;20248;-70
2021/12/25 08:41:28;;;;;;;5.63;5.13;;;;;;;;;;5065091;28;20307;-69
2021/12/25 08:44:32;;;;;;;5.77;4.77;;;;;;;;;;5066361;28;20214;-70
2021/12/25 08:47:22;;;;;;;6.30;5.40;;;;;;;;;;5066001;28;20302;-70
2021/12/25 08:50:11;;;;;;;5.90;5.00;;;;;;;;;;5066406;28;20207;-69
2021/12/25 08:52:58;;;;;;;5.73;5.10;;;;;;;;;;5068353;28;20208;-69
2021/12/25 08:55:47;;;;;;;5.50;5.03;;;;;;;;;;5065732;28;20251;-69
2021/12/25 08:58:34;;;;;;;4.80;4.40;;;;;;;;;;5065029;28;20203;-69
2021/12/25 09:01:21;;;;;;;5.30;4.83;;;;;;;;;;5066415;28;20234;-69
2021/12/25 09:04:09;;;;;;;5.53;5.00;;;;;;;;;;5063433;28;20288;-70
2021/12/25 09:06:56;;;;;;;4.77;4.37;;;;;;;;;;5066687;28;20659;-70
2021/12/25 09:09:43;;;;;;;5.33;4.83;;;;;;;;;;5067465;28;20261;-70
2021/12/25 09:12:33;;;;;;;5.90;5.40;;;;;;;;;;5070467;28;20203;-70
2021/12/25 09:15:20;;;;;;;6.30;5.70;;;;;;;;;;5070229;28;20234;-70
2021/12/25 09:18:07;;;;;;;6.10;5.57;;;;;;;;;;5070683;28;20284;-71
2021/12/25 09:20:55;;;;;;;5.70;5.30;;;;;;;;;;5071266;28;20355;-70
2021/12/25 09:23:42;;;;;;;5.80;5.30;;;;;;;;;;5069612;28;20686;-70
2021/12/25 09:26:29;;;;;;;6.20;5.70;;;;;;;;;;5070291;28;20282;-71
2021/12/25 09:29:16;;;;;;;6.63;6.13;;;;;;;;;;5069782;28;20360;-71
2021/12/25 09:32:04;;;;;;;6.97;6.37;;;;;;;;;;5068034;28;20239;-70
2021/12/25 09:34:51;;;;;;;8.63;6.47;;;;;;;;;;5070913;28;20640;-70
2021/12/25 09:37:40;;;;;;;6.13;5.63;;;;;;;;;;5068763;28;20203;-70
2021/12/25 09:40:27;;;;;;;6.13;5.63;;;;;;;;;;5069774;28;20240;-70
2021/12/25 09:43:17;;;;;;;5.97;5.50;;;;;;;;;;5070303;28;20199;-70
2021/12/25 09:46:04;;;;;;;5.80;5.37;;;;;;;;;;5068079;28;20241;-70
2021/12/25 09:48:51;;;;;;;5.20;4.80;;;;;;;;;;5069514;28;20230;-70
2021/12/25 09:51:38;;;;;;;5.43;5.03;;;;;;;;;;5069412;28;20203;-69
2021/12/25 09:54:27;;;;;;;5.40;5.00;;;;;;;;;;5067180;28;20207;-70
2021/12/25 09:57:15;;;;;;;5.83;4.87;;;;;;;;;;5068538;28;20278;-70
2021/12/25 10:00:08;;;;;;;5.07;4.67;;;;;;;;;;5068494;28;20667;-70
2021/12/25 10:02:56;;;;;;;5.43;4.97;;;;;;;;;;5069194;28;20742;-70
2021/12/25 10:05:46;;;;;;;4.87;4.57;;;;;;;;;;5069938;28;20258;-70
2021/12/25 10:08:38;;;;;;;5.13;4.63;;;;;;;;;;5067279;28;20966;-70
2021/12/25 10:11:27;;;;;;;4.33;4.03;;;;;;;;;;5068426;28;20253;-70
2021/12/25 10:14:18;;;;;;;5.13;4.73;;;;;;;;;;5071029;28;20207;-70
2021/12/25 10:17:17;;;;;;;4.70;4.30;;;;;;;;;;5069179;28;20216;-70
2021/12/25 10:20:09;;;;;;;4.33;4.03;;;;;;;;;;5069875;28;20251;-70
2021/12/25 10:23:07;;;;;;;4.83;4.33;;;;;;;;;;5069098;28;20215;-70
2021/12/25 10:25:56;;;;;;;4.67;4.00;;;;;;;;;;5068447;28;21026;-70
2021/12/25 10:28:44;;;;;;;4.30;4.00;;;;;;;;;;5069959;28;20256;-69
2021/12/25 10:31:34;;;;;;;4.70;4.30;;;;;;;;;;5067485;28;20300;-70
2021/12/25 10:34:23;;;;;;;4.13;3.83;;;;;;;;;;5056976;28;20722;-70
2021/12/25 10:37:12;;;;;;;4.47;4.17;;;;;;;;;;5068689;28;20265;-70
2021/12/25 10:39:59;;;;;;;4.60;4.20;;;;;;;;;;5064749;28;20208;-70
2021/12/25 10:42:46;;;;;;;4.10;3.77;;;;;;;;;;5069653;28;20256;-70
2021/12/25 10:45:35;;;;;;;4.00;3.70;;;;;;;;;;5069452;28;20227;-70
2021/12/25 10:48:27;;;;;;;3.93;3.63;;;;;;;;;;5068072;28;20238;-70
2021/12/25 10:51:26;;;;;;;3.97;3.60;;;;;;;;;;5069215;28;20567;-71
2021/12/25 10:54:15;;;;;;;3.90;3.60;;;;;;;;;;5068718;28;20211;-70
2021/12/25 10:57:02;;;;;;;3.73;3.47;;;;;;;;;;5068181;28;20228;-69
2021/12/25 10:59:49;;;;;;;4.60;4.30;;;;;;;;;;5067922;28;20208;-70
2021/12/25 11:02:40;;;;;;;4.57;4.27;;;;;;;;;;5064866;28;20630;-70
2021/12/25 11:05:29;;;;;;;5.30;4.90;;;;;;;;;;5065723;28;20291;-69
2021/12/25 11:08:19;;;;;;;5.50;5.00;;;;;;;;;;5062738;28;20217;-70
2021/12/25 11:11:08;;;;;;;6.53;5.33;;;;;;;;;;5064154;28;20691;-69
2021/12/25 11:14:00;;;;;;;5.97;5.27;;;;;;;;;;5064618;28;20295;-71
2021/12/25 11:16:52;;;;;;;5.80;5.40;;;;;;;;;;5063472;28;20235;-70
2021/12/25 11:19:56;;;;;;;6.97;6.37;;;;;;;;;;5068653;28;20212;-70
2021/12/25 11:22:49;;;;;;;7.00;6.40;;;;;;;;;;5068467;28;20329;-71
2021/12/25 11:25:39;;;;;;;7.23;6.63;;;;;;;;;;5066944;28;20207;-71
2021/12/25 11:28:26;;;;;;;7.27;6.67;;;;;;;;;;5063994;28;20203;-70
2021/12/25 11:31:13;;;;;;;7.57;6.87;;;;;;;;;;5064442;28;20343;-71
2021/12/25 11:34:00;;;;;;;6.83;6.30;;;;;;;;;;5056970;28;20299;-70
2021/12/25 11:36:51;;;;;;;6.57;6.07;;;;;;;;;;5068018;28;20310;-71
2021/12/25 11:39:39;;;;;;;6.20;5.63;;;;;;;;;;5065473;28;20325;-70
2021/12/25 11:42:28;;;;;;;6.23;5.73;;;;;;;;;;5065967;28;20238;-70
2021/12/25 11:45:18;;;;;;;6.07;5.57;;;;;;;;;;5068378;28;20602;-71
2021/12/25 11:48:14;;;;;;;5.93;5.53;;;;;;;;;;5065537;28;20664;-70
2021/12/25 11:51:01;;;;;;;5.43;5.07;;;;;;;;;;5067038;28;20652;-70
2021/12/25 11:54:07;;;;;;;6.23;5.80;;;;;;;;;;5066632;28;20213;-71
2021/12/25 11:57:11;;;;;;;5.33;4.93;;;;;;;;;;5054229;28;20672;-70
2021/12/25 12:00:00;;;;;;;5.90;5.40;;;;;;;;;;5066887;28;20208;-71
2021/12/25 12:02:47;;;;;;;5.90;5.40;;;;;;;;;;5065197;28;20221;-71
2021/12/25 12:05:36;;;;;;;5.00;4.70;;;;;;;;;;5061940;28;20290;-70
2021/12/25 12:08:22;;;;;;;5.00;4.60;;;;;;;;;;5066121;28;20200;-70
2021/12/25 12:11:21;;;;;;;5.40;5.00;;;;;;;;;;5063562;28;20220;-70
2021/12/25 12:14:17;;;;;;;5.00;4.60;;;;;;;;;;5067606;28;20686;-71
2021/12/25 12:17:07;;;;;;;5.03;4.63;;;;;;;;;;5064967;28;20837;-70
2021/12/25 12:19:55;;;;;;;4.67;4.37;;;;;;;;;;5066700;28;20203;-70
2021/12/25 12:26:05;;;;;;;4.80;4.33;;;;;;;;;;5065759;28;20210;-71
2021/12/25 12:28:55;;;;;;;4.23;3.87;;;;;;;;;;5067451;28;20225;-70
2021/12/25 12:31:44;;;;;;;3.87;3.67;;;;;;;;;;5066389;28;20207;-70
2021/12/25 12:34:36;;;;;;;3.80;3.57;;;;;;;;;;5066241;28;20253;-70
2021/12/25 12:37:31;;;;;;;4.03;3.83;;;;;;;;;;5068076;28;20223;-70
2021/12/25 12:40:24;;;;;;;3.67;3.47;;;;;;;;;;5066685;28;20556;-70
2021/12/25 12:43:13;;;;;;;3.63;3.43;;;;;;;;;;5061677;28;20209;-70
2021/12/25 12:46:02;;;;;;;3.50;3.30;;;;;;;;;;5071710;28;20210;-70
2021/12/25 12:49:10;;;;;;;3.80;3.60;;;;;;;;;;5071315;28;20204;-70
2021/12/25 12:52:20;;;;;;;3.33;3.13;;;;;;;;;;5071498;28;20267;-70
2021/12/25 12:55:10;;;;;;;3.00;2.90;;;;;;;;;;5071683;28;20328;-71
2021/12/25 12:58:09;;;;;;;3.50;3.20;;;;;;;;;;5070158;28;20224;-70
2021/12/25 13:00:58;;;;;;;3.00;2.83;;;;;;;;;;5071268;28;20302;-71
2021/12/25 13:03:47;;;;;;;3.27;3.07;;;;;;;;;;5070474;28;20267;-70
2021/12/25 13:06:34;;;;;;;3.30;3.10;;;;;;;;;;5070352;28;20349;-70
2021/12/25 13:09:21;;;;;;;3.40;3.20;;;;;;;;;;5059362;28;20653;-70
2021/12/25 13:12:19;;;;;;;3.20;3.00;;;;;;;;;;5069487;28;20236;-70
2021/12/25 13:15:13;;;;;;;3.03;2.83;;;;;;;;;;5067143;28;20292;-69
2021/12/25 13:18:01;;;;;;;3.00;2.80;;;;;;;;;;5070772;28;20208;-71
2021/12/25 13:20:51;;;;;;;3.00;2.80;;;;;;;;;;5069867;28;20278;-71
2021/12/25 13:23:42;;;;;;;3.30;2.93;;;;;;;;;;5059649;28;20294;-71
2021/12/25 13:26:34;;;;;;;2.97;2.80;;;;;;;;;;5069139;28;20212;-71
2021/12/25 13:29:23;;;;;;;3.20;3.00;;;;;;;;;;5069425;28;20223;-71
2021/12/25 13:32:10;;;;;;;3.17;2.97;;;;;;;;;;5060188;28;20204;-71
2021/12/25 13:34:57;;;;;;;2.90;2.70;;;;;;;;;;5069650;28;20293;-68
2021/12/25 13:37:45;;;;;;;3.07;2.87;;;;;;;;;;5061497;28;20320;-71
2021/12/25 13:40:33;;;;;;;2.70;2.60;;;;;;;;;;5070035;28;20231;-71
2021/12/25 13:43:20;;;;;;;3.20;3.00;;;;;;;;;;5069103;28;20281;-71
2021/12/25 13:46:07;;;;;;;3.30;3.00;;;;;;;;;;5056958;28;20286;-70
2021/12/25 13:48:53;;;;;;;3.20;3.00;;;;;;;;;;5070412;28;20258;-70
2021/12/25 13:51:42;;;;;;;3.43;3.23;;;;;;;;;;5069373;28;20242;-71
2021/12/25 13:54:31;;;;;;;3.40;3.20;;;;;;;;;;5064640;28;20212;-71
2021/12/25 13:57:18;;;;;;;3.83;3.63;;;;;;;;;;5068415;28;20696;-71
2021/12/25 14:00:08;;;;;;;4.03;3.73;;;;;;;;;;5069472;28;20658;-71
2021/12/25 14:02:59;;;;;;;3.87;3.67;;;;;;;;;;5068507;28;20266;-71
2021/12/25 14:05:48;;;;;;;3.67;3.47;;;;;;;;;;5068896;28;20242;-71
2021/12/25 14:08:35;;;;;;;3.97;3.67;;;;;;;;;;5069500;28;20209;-71
2021/12/25 14:11:24;;;;;;;3.67;3.47;;;;;;;;;;5068155;28;20296;-71
2021/12/25 14:14:12;;;;;;;3.80;3.57;;;;;;;;;;5069607;28;20286;-71
2021/12/25 14:17:00;;;;;;;3.87;3.67;;;;;;;;;;5069980;28;20244;-71
2021/12/25 14:19:47;;;;;;;4.07;3.77;;;;;;;;;;5068093;28;20743;-71
2021/12/25 14:22:34;;;;;;;3.73;3.53;;;;;;;;;;5055592;28;20211;-71
2021/12/25 14:25:24;;;;;;;4.07;3.77;;;;;;;;;;5069549;28;20199;-71
2021/12/25 14:28:16;;;;;;;4.47;4.10;;;;;;;;;;5068780;28;21033;-70
2021/12/25 14:31:06;;;;;;;4.90;4.60;;;;;;;;;;5071195;28;20204;-71
2021/12/25 14:33:56;;;;;;;5.30;4.90;;;;;;;;;;5068115;28;20244;-71
2021/12/25 14:36:45;;;;;;;5.13;4.73;;;;;;;;;;5063833;28;20235;-70
2021/12/25 14:39:32;;;;;;;5.17;4.77;;;;;;;;;;5069424;28;20265;-70
2021/12/25 14:42:32;;;;;;;5.50;5.07;;;;;;;;;;5067805;28;20242;-70
2021/12/25 14:45:21;;;;;;;5.17;4.83;;;;;;;;;;5053738;28;20298;-70
2021/12/25 14:48:08;;;;;;;5.20;4.80;;;;;;;;;;5069009;28;20231;-71
2021/12/25 14:50:58;;;;;;;5.00;4.60;;;;;;;;;;5070146;28;20250;-71
2021/12/25 14:53:46;;;;;;;5.63;5.13;;;;;;;;;;5068851;28;20749;-72
2021/12/25 14:56:35;;;;;;;5.20;4.80;;;;;;;;;;5066117;28;20315;-71
2021/12/25 14:59:23;;;;;;;5.27;4.87;;;;;;;;;;5068974;28;20242;-71
2021/12/25 15:02:19;;;;;;;5.67;5.27;;;;;;;;;;5068661;28;20663;-71
2021/12/25 15:05:06;;;;;;;5.23;4.83;;;;;;;;;;5067922;28;20242;-70
2021/12/25 15:07:53;;;;;;;5.10;4.70;;;;;;;;;;5067360;28;20332;-71
2021/12/25 15:10:40;;;;;;;4.97;4.57;;;;;;;;;;5067020;28;20602;-70
2021/12/25 15:13:27;;;;;;;5.53;5.13;;;;;;;;;;5064660;28;20215;-71
2021/12/25 15:16:14;;;;;;;5.10;4.80;;;;;;;;;;5069043;28;20203;-71
2021/12/25 15:19:04;;;;;;;4.97;4.67;;;;;;;;;;5067827;28;20207;-71
2021/12/25 15:21:52;;;;;;;4.97;4.57;;;;;;;;;;5069171;28;20215;-71
2021/12/25 15:24:49;;;;;;;5.20;4.80;;;;;;;;;;5065343;28;20203;-70
2021/12/25 15:27:38;;;;;;;5.40;5.00;;;;;;;;;;5060767;28;20231;-71
2021/12/25 15:30:31;;;;;;;6.03;5.53;;;;;;;;;;5068135;28;20211;-71
2021/12/25 15:33:18;;;;;;;6.20;5.70;;;;;;;;;;5065149;28;20207;-70
2021/12/25 15:36:15;;;;;;;6.20;5.70;;;;;;;;;;5067601;28;20297;-70
2021/12/25 15:39:11;;;;;;;6.00;5.50;;;;;;;;;;5067278;28;20942;-70
2021/12/25 15:42:01;;;;;;;6.10;5.70;;;;;;;;;;5064566;28;20687;-71
2021/12/25 15:44:49;;;;;;;6.13;5.63;;;;;;;;;;5067512;28;20209;-70
2021/12/25 15:47:36;;;;;;;6.50;6.00;;;;;;;;;;5066296;28;20218;-70
2021/12/25 15:50:25;;;;;;;6.40;5.90;;;;;;;;;;5064607;28;20207;-71
2021/12/25 15:53:15;;;;;;;6.50;6.00;;;;;;;;;;5068464;28;20294;-71
2021/12/25 15:56:02;;;;;;;6.50;5.93;;;;;;;;;;5066841;28;20284;-71
2021/12/25 15:58:49;;;;;;;6.40;5.90;;;;;;;;;;5068450;28;20216;-71
2021/12/25 16:01:35;;;;;;;5.97;5.47;;;;;;;;;;5067336;28;20253;-70
2021/12/25 16:04:22;;;;;;;7.00;6.40;;;;;;;;;;5067237;28;20323;-70
2021/12/25 16:07:11;;;;;;;6.30;5.80;;;;;;;;;;5068184;28;20234;-71
2021/12/25 16:09:59;;;;;;;6.77;6.17;;;;;;;;;;5065199;28;20242;-70
2021/12/25 16:12:46;;;;;;;6.30;5.80;;;;;;;;;;5061079;28;20744;-71
2021/12/25 16:15:34;;;;;;;6.27;5.77;;;;;;;;;;5068051;28;20218;-68
2021/12/25 16:18:21;;;;;;;6.20;5.70;;;;;;;;;;5066418;28;20226;-71
2021/12/25 16:21:08;;;;;;;6.10;5.70;;;;;;;;;;5052550;28;20663;-70
2021/12/25 16:23:56;;;;;;;5.87;5.47;;;;;;;;;;5065785;28;20239;-70
2021/12/25 16:26:45;;;;;;;5.83;5.37;;;;;;;;;;5067481;28;20204;-70
2021/12/25 16:29:32;;;;;;;6.87;6.27;;;;;;;;;;5068585;28;20261;-71
2021/12/25 16:32:19;;;;;;;5.97;5.57;;;;;;;;;;5066935;28;20218;-71
2021/12/25 16:35:07;;;;;;;6.10;5.60;;;;;;;;;;5053375;28;20203;-71
2021/12/25 16:37:54;;;;;;;6.53;5.93;;;;;;;;;;5069028;28;20231;-71
2021/12/25 16:40:42;;;;;;;6.40;5.90;;;;;;;;;;5067243;28;20206;-71
2021/12/25 16:43:31;;;;;;;6.67;6.17;;;;;;;;;;5055786;28;20202;-71
2021/12/25 16:46:17;;;;;;;6.90;6.23;;;;;;;;;;5066966;28;20234;-71
2021/12/25 16:49:06;;;;;;;5.67;5.23;;;;;;;;;;5068515;28;20211;-71
2021/12/25 16:51:54;;;;;;;6.53;6.03;;;;;;;;;;5067849;28;20337;-71
2021/12/25 16:54:41;;;;;;;6.30;5.80;;;;;;;;;;5067255;28;20215;-71
2021/12/25 16:57:27;;;;;;;6.90;6.40;;;;;;;;;;5067410;28;20364;-70
2021/12/25 17:00:19;;;;;;;7.17;6.57;;;;;;;;;;5066382;28;20214;-68
2021/12/25 17:03:09;;;;;;;7.20;6.60;;;;;;;;;;5059120;28;20256;-70
2021/12/25 17:05:56;;;;;;;7.30;6.70;;;;;;;;;;5068160;28;20218;-70
2021/12/25 17:08:44;;;;;;;7.97;7.20;;;;;;;;;;5065776;28;20280;-70
2021/12/25 17:11:32;;;;;;;7.63;7.03;;;;;;;;;;5063752;28;20301;-70
2021/12/25 17:14:19;;;;;;;7.47;6.80;;;;;;;;;;5067433;28;20204;-70
2021/12/25 17:17:08;;;;;;;7.13;6.60;;;;;;;;;;5066082;28;20249;-70
2021/12/25 17:19:56;;;;;;;7.30;6.70;;;;;;;;;;5066543;28;20241;-70
2021/12/25 17:22:44;;;;;;;8.13;6.87;;;;;;;;;;5065210;28;20215;-70
2021/12/25 17:25:32;;;;;;;7.80;7.20;;;;;;;;;;5068011;28;20260;-70
2021/12/25 17:28:19;;;;;;;7.60;7.00;;;;;;;;;;5066668;28;20836;-70
2021/12/25 17:31:06;;;;;;;8.03;7.33;;;;;;;;;;5070496;28;20210;-70
2021/12/25 17:33:55;;;;;;;7.80;7.20;;;;;;;;;;5063433;28;20725;-70
2021/12/25 17:36:44;;;;;;;7.80;7.10;;;;;;;;;;5068404;28;20210;-70
2021/12/25 17:39:31;;;;;;;7.57;6.93;;;;;;;;;;5070823;28;20222;-70
2021/12/25 17:42:18;;;;;;;7.80;7.10;;;;;;;;;;5068804;28;20662;-70
2021/12/25 17:45:05;;;;;;;7.77;7.17;;;;;;;;;;5070130;28;20303;-70